createdAt,value
2023-04-30T00:00:41.389Z,100353.97
2023-04-30T00:03:09.433Z,100372.69
2023-04-30T00:05:38.590Z,100364.03
2023-04-30T00:08:06.663Z,100373.78
2023-04-30T00:10:34.553Z,100386.22
2023-04-30T00:13:02.566Z,100389.00
2023-04-30T00:15:31.176Z,100399.69
2023-04-30T00:18:00.681Z,100402.38
2023-04-30T00:20:28.702Z,100396.28
2023-04-30T00:22:56.935Z,100407.13
2023-04-30T00:25:25.027Z,100393.25
2023-04-30T00:27:53.033Z,100405.41
2023-04-30T00:30:21.149Z,100404.56
2023-04-30T00:32:49.209Z,100417.06
2023-04-30T00:35:18.917Z,100421.59
2023-04-30T00:37:47.755Z,100420.75
2023-04-30T00:40:15.822Z,100417.94
2023-04-30T00:42:43.762Z,100424.28
2023-04-30T00:45:12.100Z,100402.91
2023-04-30T00:47:40.264Z,100429.63
2023-04-30T00:50:09.834Z,100426.97
2023-04-30T00:52:39.280Z,100428.63
2023-04-30T00:55:08.312Z,100417.78
2023-04-30T00:57:37.213Z,100430.47
2023-04-30T01:00:06.304Z,100435.00
2023-04-30T01:02:34.666Z,100445.56
2023-04-30T01:05:03.906Z,100438.75
2023-04-30T01:07:34.499Z,100451.88
2023-04-30T01:10:04.203Z,100454.53
2023-04-30T01:12:40.477Z,100445.78
2023-04-30T01:15:16.380Z,100458.22
2023-04-30T01:17:50.117Z,100459.06
2023-04-30T01:20:18.434Z,100456.50
2023-04-30T01:22:52.194Z,100450.41
2023-04-30T01:25:55.149Z,100462.94
2023-04-30T01:28:25.697Z,100455.97
2023-04-30T01:30:54.403Z,100465.72
2023-04-30T01:33:22.580Z,100469.34
2023-04-30T01:36:19.474Z,100475.56
2023-04-30T01:39:08.510Z,100445.72
2023-04-30T01:41:41.275Z,100478.47
2023-04-30T01:44:30.517Z,100486.50
2023-04-30T01:47:06.287Z,100486.63
2023-04-30T01:49:45.716Z,100489.28
2023-04-30T01:52:21.829Z,100488.44
2023-04-30T01:54:53.882Z,100483.09
2023-04-30T01:57:28.015Z,100490.97
2023-04-30T01:59:57.663Z,100462.94
2023-04-30T02:02:25.762Z,100490.03
2023-04-30T02:04:53.952Z,100490.03
2023-04-30T02:07:34.688Z,100495.38
2023-04-30T02:10:03.332Z,100490.97
2023-04-30T02:12:31.389Z,100486.50
2023-04-30T02:15:00.888Z,100500.72
2023-04-30T02:17:28.865Z,100495.38
2023-04-30T02:19:56.995Z,100480.13
2023-04-30T02:22:25.128Z,100490.25
2023-04-30T02:24:55.460Z,100502.53
2023-04-30T02:27:25.199Z,100493.66
2023-04-30T02:29:54.085Z,100496.31
2023-04-30T02:32:23.879Z,100499.13
2023-04-30T02:34:51.905Z,100508.84
2023-04-30T02:37:20.041Z,100498.28
2023-04-30T02:39:47.981Z,100514.31
2023-04-30T02:42:16.279Z,100514.47
2023-04-30T02:44:44.660Z,100516.38
2023-04-30T02:47:12.654Z,100520.03
2023-04-30T02:49:42.251Z,100522.81
2023-04-30T02:52:10.252Z,100517.72
2023-04-30T02:54:38.992Z,100523.66
2023-04-30T02:57:07.127Z,100523.16
2023-04-30T02:59:35.489Z,100514.63
2023-04-30T03:02:03.500Z,100525.97
2023-04-30T03:04:31.668Z,100525.97
2023-04-30T03:07:01.100Z,100515.28
2023-04-30T03:09:29.282Z,100532.28
2023-04-30T03:11:57.236Z,100534.94
2023-04-30T03:14:25.268Z,100528.97
2023-04-30T03:16:53.316Z,100537.75
2023-04-30T03:19:25.136Z,100549.41
2023-04-30T03:21:53.606Z,100543.09
2023-04-30T03:24:23.033Z,100547.59
2023-04-30T03:26:51.015Z,100542.25
2023-04-30T03:29:19.618Z,100545.88
2023-04-30T03:31:47.904Z,100539.16
2023-04-30T03:34:16.142Z,100543.19
2023-04-30T03:36:44.404Z,100545.88
2023-04-30T03:39:12.400Z,100549.41
2023-04-30T03:41:41.993Z,100552.94
2023-04-30T03:44:15.604Z,100561.94
2023-04-30T03:46:44.063Z,100562.78
2023-04-30T03:49:12.429Z,100561.31
2023-04-30T03:51:41.863Z,100567.19
2023-04-30T03:54:10.200Z,100560.25
2023-04-30T03:56:38.960Z,100569.50
2023-04-30T03:59:08.452Z,100565.63
2023-04-30T04:01:36.497Z,100578.78
2023-04-30T04:04:04.762Z,100573.19
2023-04-30T04:06:34.001Z,100577.38
2023-04-30T04:09:02.258Z,100577.03
2023-04-30T04:11:30.326Z,100584.59
2023-04-30T04:13:58.813Z,100565.66
2023-04-30T04:16:28.401Z,100591.81
2023-04-30T04:18:56.438Z,100601.34
2023-04-30T04:21:24.437Z,100599.16
2023-04-30T04:23:52.359Z,100601.59
2023-04-30T04:26:21.597Z,100609.16
2023-04-30T04:28:50.115Z,100604.41
2023-04-30T04:31:18.109Z,100605.78
2023-04-30T04:33:47.777Z,100612.59
2023-04-30T04:36:16.235Z,100612.28
2023-04-30T04:38:44.303Z,100618.22
2023-04-30T04:41:12.304Z,100621.66
2023-04-30T04:43:41.102Z,100622.50
2023-04-30T04:46:13.015Z,100623.47
2023-04-30T04:48:42.369Z,100629.78
2023-04-30T04:51:11.886Z,100632.59
2023-04-30T04:53:40.101Z,100629.16
2023-04-30T04:56:09.003Z,100627.56
2023-04-30T04:58:37.233Z,100624.66
2023-04-30T05:01:06.044Z,100636.69
2023-04-30T05:03:37.050Z,100566.63
2023-04-30T05:06:05.509Z,100637.69
2023-04-30T05:08:34.856Z,100637.56
2023-04-30T05:11:02.940Z,100649.13
2023-04-30T05:13:31.189Z,100646.47
2023-04-30T05:15:59.184Z,100651.81
2023-04-30T05:18:27.229Z,100653.75
2023-04-30T05:20:55.195Z,100648.50
2023-04-30T05:23:23.208Z,100644.50
2023-04-30T05:25:55.135Z,100657.53
2023-04-30T05:28:23.134Z,100663.09
2023-04-30T05:30:51.906Z,100667.72
2023-04-30T05:33:19.849Z,100666.97
2023-04-30T05:35:47.899Z,100673.31
2023-04-30T05:38:15.832Z,100675.25
2023-04-30T05:40:43.954Z,100677.16
2023-04-30T05:43:13.387Z,100686.19
2023-04-30T05:45:41.498Z,100695.31
2023-04-30T05:48:09.540Z,100686.63
2023-04-30T05:50:37.639Z,100692.13
2023-04-30T05:53:05.619Z,100687.09
2023-04-30T05:55:33.910Z,100698.31
2023-04-30T05:58:01.926Z,100697.56
2023-04-30T06:00:31.353Z,100700.88
2023-04-30T06:02:59.342Z,100701.75
2023-04-30T06:05:27.691Z,100708.91
2023-04-30T06:07:55.734Z,100709.78
2023-04-30T06:10:23.769Z,100707.09
2023-04-30T06:12:52.231Z,100709.66
2023-04-30T06:15:20.280Z,100704.28
2023-04-30T06:17:49.792Z,100709.06
2023-04-30T06:20:17.873Z,100709.06
2023-04-30T06:22:45.953Z,100709.50
2023-04-30T06:25:14.015Z,100712.53
2023-04-30T06:27:41.987Z,100712.97
2023-04-30T06:30:10.740Z,100716.50
2023-04-30T06:32:38.825Z,100701.97
2023-04-30T06:35:08.964Z,100722.34
2023-04-30T06:37:38.051Z,100726.38
2023-04-30T06:40:07.526Z,100723.13
2023-04-30T06:42:35.988Z,100741.53
2023-04-30T06:45:06.600Z,100714.06
2023-04-30T06:47:36.388Z,100755.09
2023-04-30T06:50:05.664Z,100745.13
2023-04-30T06:52:35.090Z,100747.69
2023-04-30T06:55:03.534Z,100719.47
2023-04-30T06:57:31.911Z,100747.47
2023-04-30T07:00:00.618Z,100753.44
2023-04-30T07:02:28.819Z,100746.25
2023-04-30T07:04:56.866Z,100744.03
2023-04-30T07:07:25.087Z,100755.16
2023-04-30T07:09:54.986Z,100762.34
2023-04-30T07:12:23.317Z,100759.38
2023-04-30T07:14:51.280Z,100771.59
2023-04-30T07:17:19.356Z,100779.84
2023-04-30T07:19:47.362Z,100762.28
2023-04-30T07:22:15.322Z,100778.38
2023-04-30T07:24:43.379Z,100773.13
2023-04-30T07:27:12.700Z,100781.19
2023-04-30T07:29:40.636Z,100773.50
2023-04-30T07:32:08.584Z,100771.75
2023-04-30T07:34:36.555Z,100776.91
2023-04-30T07:37:04.574Z,100785.66
2023-04-30T07:39:32.508Z,100782.03
2023-04-30T07:42:02.616Z,100788.34
2023-04-30T07:44:33.831Z,100794.44
2023-04-30T07:47:01.851Z,100793.63
2023-04-30T07:49:29.831Z,100781.72
2023-04-30T07:51:57.943Z,100813.09
2023-04-30T07:54:26.370Z,100814.94
2023-04-30T07:59:24.483Z,100814.19
2023-04-30T08:01:54.038Z,100825.50
2023-04-30T08:04:22.036Z,100837.09
2023-04-30T08:06:50.281Z,100833.47
2023-04-30T08:09:18.344Z,100833.47
2023-04-30T08:11:46.496Z,100835.91
2023-04-30T08:14:14.374Z,100833.97
2023-04-30T08:16:42.456Z,100843.59
2023-04-30T08:19:12.027Z,100789.69
2023-04-30T08:21:40.591Z,100843.16
2023-04-30T08:24:08.656Z,100847.44
2023-04-30T08:26:36.719Z,100858.75
2023-04-30T08:29:04.644Z,100862.16
2023-04-30T08:31:32.914Z,100855.72
2023-04-30T08:34:00.945Z,100864.38
2023-04-30T08:36:30.297Z,100866.84
2023-04-30T08:38:58.546Z,100878.31
2023-04-30T08:41:28.355Z,100876.34
2023-04-30T08:44:00.790Z,100880.75
2023-04-30T08:46:31.635Z,100891.34
2023-04-30T08:48:59.891Z,100895.66
2023-04-30T08:51:31.855Z,100893.56
2023-04-30T08:53:59.868Z,100896.03
2023-04-30T08:56:29.580Z,100898.50
2023-04-30T08:58:57.599Z,100898.72
2023-04-30T09:01:26.888Z,100915.94
2023-04-30T09:03:55.112Z,100909.59
2023-04-30T09:06:23.258Z,100916.53
2023-04-30T09:08:54.264Z,100918.28
2023-04-30T09:11:26.373Z,100924.38
2023-04-30T09:13:55.800Z,100919.88
2023-04-30T09:16:24.631Z,100928.78
2023-04-30T09:18:53.501Z,100919.63
2023-04-30T09:21:33.386Z,100928.41
2023-04-30T09:24:05.151Z,100923.91
2023-04-30T09:26:34.734Z,100924.88
2023-04-30T09:29:07.958Z,100928.28
2023-04-30T09:31:37.444Z,100930.03
2023-04-30T09:34:06.114Z,100929.06
2023-04-30T09:36:34.650Z,100929.16
2023-04-30T09:39:14.159Z,100932.50
2023-04-30T09:41:43.562Z,100938.81
2023-04-30T09:44:28.401Z,100933.22
2023-04-30T09:46:57.716Z,100908.75
2023-04-30T09:49:26.465Z,100934.94
2023-04-30T09:51:58.317Z,100943.00
2023-04-30T09:54:30.514Z,100938.50
2023-04-30T09:57:01.577Z,100942.00
2023-04-30T09:59:32.044Z,100944.69
2023-04-30T10:02:02.048Z,100948.34
2023-04-30T10:04:33.330Z,100940.31
2023-04-30T10:07:03.558Z,100943.00
2023-04-30T10:09:41.287Z,100947.38
2023-04-30T10:12:15.527Z,100949.22
2023-04-30T10:14:48.983Z,100957.13
2023-04-30T10:17:18.416Z,100959.81
2023-04-30T10:19:50.980Z,100954.31
2023-04-30T10:22:20.791Z,100960.56
2023-04-30T10:24:51.695Z,100964.09
2023-04-30T10:27:20.251Z,100970.31
2023-04-30T10:29:49.975Z,100957.00
2023-04-30T10:32:18.714Z,100963.97
2023-04-30T10:34:54.109Z,100970.09
2023-04-30T10:37:39.800Z,100971.91
2023-04-30T10:40:10.338Z,100972.66
2023-04-30T10:42:38.698Z,100959.47
2023-04-30T10:45:11.663Z,100965.69
2023-04-30T10:47:43.680Z,100964.81
2023-04-30T10:50:12.823Z,100970.94
2023-04-30T10:52:40.804Z,100969.69
2023-04-30T10:55:11.315Z,100989.13
2023-04-30T10:57:43.687Z,100986.44
2023-04-30T11:00:21.784Z,100993.75
2023-04-30T11:02:50.112Z,101001.03
2023-04-30T11:05:19.600Z,101014.59
2023-04-30T11:07:50.422Z,100991.66
2023-04-30T11:10:22.638Z,101024.44
2023-04-30T11:12:51.571Z,101028.13
2023-04-30T11:15:22.645Z,101023.59
2023-04-30T11:17:51.417Z,101034.44
2023-04-30T11:20:22.420Z,101044.22
2023-04-30T11:23:08.881Z,101028.22
2023-04-30T11:25:42.975Z,101022.00
2023-04-30T11:28:15.476Z,101027.25
2023-04-30T11:30:51.576Z,101023.59
2023-04-30T11:33:20.591Z,101027.25
2023-04-30T11:35:49.992Z,101022.75
2023-04-30T11:38:18.883Z,101028.13
2023-04-30T11:40:50.056Z,101023.50
2023-04-30T11:43:26.015Z,101017.13
2023-04-30T11:46:02.305Z,101024.22
2023-04-30T11:48:33.989Z,101002.66
2023-04-30T11:51:05.401Z,101017.13
2023-04-30T11:53:33.442Z,101022.50
2023-04-30T11:56:06.435Z,101025.94
2023-04-30T11:58:39.358Z,101020.69
2023-04-30T12:01:09.621Z,101014.72
2023-04-30T12:03:49.155Z,101030.31
2023-04-30T12:06:23.289Z,101024.97
2023-04-30T12:08:53.715Z,101023.13
2023-04-30T12:11:25.220Z,101018.63
2023-04-30T12:13:55.238Z,101008.56
2023-04-30T12:16:25.038Z,101027.63
2023-04-30T12:18:53.315Z,101026.69
2023-04-30T12:21:23.464Z,101002.16
2023-04-30T12:23:51.734Z,101043.75
2023-04-30T12:26:19.677Z,101033.00
2023-04-30T12:28:50.570Z,101010.34
2023-04-30T12:31:19.177Z,101031.53
2023-04-30T12:33:58.084Z,101020.31
2023-04-30T12:36:33.703Z,101027.13
2023-04-30T12:39:08.902Z,101029.59
2023-04-30T12:41:43.234Z,101031.53
2023-04-30T12:44:20.688Z,101046.66
2023-04-30T12:46:49.299Z,101037.00
2023-04-30T12:49:25.544Z,101040.47
2023-04-30T12:51:53.719Z,101044.09
2023-04-30T12:54:28.953Z,101047.50
2023-04-30T12:57:02.032Z,101054.47
2023-04-30T12:59:32.397Z,101059.84
2023-04-30T13:02:18.185Z,101045.81
2023-04-30T13:04:46.298Z,101032.00
2023-04-30T13:07:14.318Z,101057.16
2023-04-30T13:09:42.261Z,101058.03
2023-04-30T13:12:10.264Z,101053.38
2023-04-30T13:14:39.682Z,101059.63
2023-04-30T13:17:09.769Z,101065.84
2023-04-30T13:19:37.801Z,101057.81
2023-04-30T13:22:05.823Z,101042.56
2023-04-30T13:24:33.928Z,101068.53
2023-04-30T13:27:02.871Z,101055.97
2023-04-30T13:29:31.849Z,101063.91
2023-04-30T13:32:01.192Z,101062.81
2023-04-30T13:34:29.215Z,101055.97
2023-04-30T13:36:57.306Z,101061.22
2023-04-30T13:39:25.385Z,101069.41
2023-04-30T13:41:53.412Z,101064.03
2023-04-30T13:44:21.317Z,101057.81
2023-04-30T13:46:50.153Z,101061.34
2023-04-30T13:49:19.585Z,101061.22
2023-04-30T13:51:47.613Z,101064.03
2023-04-30T13:54:15.617Z,101067.53
2023-04-30T13:56:43.653Z,101064.13
2023-04-30T13:59:12.280Z,101071.22
2023-04-30T14:01:40.832Z,101078.41
2023-04-30T14:04:09.192Z,101072.91
2023-04-30T14:06:39.406Z,101071.00
2023-04-30T14:09:07.580Z,101086.09
2023-04-30T14:11:35.691Z,101072.69
2023-04-30T14:14:03.802Z,101078.91
2023-04-30T14:16:31.816Z,101077.97
2023-04-30T14:18:59.801Z,101068.91
2023-04-30T14:21:28.633Z,101076.97
2023-04-30T14:23:58.154Z,101069.69
2023-04-30T14:26:26.289Z,101073.31
2023-04-30T14:28:54.337Z,101058.09
2023-04-30T14:31:22.254Z,101069.69
2023-04-30T14:33:50.326Z,101065.03
2023-04-30T14:36:18.342Z,101074.06
2023-04-30T14:38:46.276Z,101074.78
2023-04-30T14:41:15.693Z,101067.59
2023-04-30T14:43:48.401Z,101071.16
2023-04-30T14:46:18.899Z,101062.22
2023-04-30T14:48:50.729Z,101069.41
2023-04-30T14:51:18.748Z,101072.09
2023-04-30T14:53:46.820Z,101074.78
2023-04-30T14:56:16.230Z,101068.59
2023-04-30T14:58:44.210Z,101062.34
2023-04-30T15:01:12.393Z,101074.78
2023-04-30T15:03:40.675Z,101084.69
2023-04-30T15:06:08.973Z,101075.88
2023-04-30T15:08:36.964Z,101083.09
2023-04-30T15:11:07.025Z,101081.38
2023-04-30T15:13:36.443Z,101084.06
2023-04-30T15:16:04.650Z,101083.31
2023-04-30T15:18:33.147Z,101084.41
2023-04-30T15:21:02.125Z,101087.84
2023-04-30T15:23:30.499Z,101090.50
2023-04-30T15:25:58.605Z,101091.38
2023-04-30T15:28:26.795Z,101091.38
2023-04-30T15:30:56.275Z,101086.88
2023-04-30T15:33:27.320Z,101083.41
2023-04-30T15:35:55.978Z,101093.19
2023-04-30T15:38:24.006Z,101069.72
2023-04-30T15:40:52.137Z,101088.78
2023-04-30T15:43:21.282Z,101087.97
2023-04-30T15:45:49.447Z,101093.31
2023-04-30T15:48:18.822Z,101089.66
2023-04-30T15:50:46.889Z,101087.97
2023-04-30T15:53:14.821Z,101086.09
2023-04-30T15:55:43.194Z,101089.66
2023-04-30T15:58:11.282Z,101082.81
2023-04-30T16:00:39.735Z,101088.06
2023-04-30T16:03:07.884Z,101092.47
2023-04-30T16:05:40.389Z,101094.38
2023-04-30T16:08:09.542Z,101089.13
2023-04-30T16:10:38.685Z,101089.38
2023-04-30T16:13:06.835Z,101094.00
2023-04-30T16:15:34.830Z,101090.44
2023-04-30T16:18:03.017Z,101087.91
2023-04-30T16:20:32.615Z,101095.81
2023-04-30T16:23:01.994Z,101091.53
2023-04-30T16:25:30.514Z,101090.81
2023-04-30T16:27:58.486Z,101089.94
2023-04-30T16:30:26.689Z,101094.63
2023-04-30T16:32:54.607Z,101096.56
2023-04-30T16:35:22.661Z,101098.31
2023-04-30T16:37:50.688Z,101109.25
2023-04-30T16:40:20.060Z,101079.56
2023-04-30T16:42:48.170Z,101112.91
2023-04-30T16:45:17.217Z,101108.63
2023-04-30T16:47:45.920Z,101098.97
2023-04-30T16:50:13.976Z,101109.69
2023-04-30T16:52:42.650Z,101109.69
2023-04-30T16:55:11.480Z,101108.97
2023-04-30T16:57:41.189Z,101100.19
2023-04-30T17:00:11.464Z,101109.09
2023-04-30T17:02:40.816Z,101100.28
2023-04-30T17:05:10.767Z,101102.44
2023-04-30T17:07:38.931Z,101111.88
2023-04-30T17:10:08.146Z,101118.22
2023-04-30T17:12:36.127Z,101116.38
2023-04-30T17:15:06.389Z,101113.69
2023-04-30T17:17:34.383Z,101111.88
2023-04-30T17:20:02.935Z,101120.91
2023-04-30T17:22:30.924Z,101077.81
2023-04-30T17:24:59.832Z,101121.84
2023-04-30T17:27:28.709Z,101120.91
2023-04-30T17:29:57.220Z,101122.72
2023-04-30T17:32:27.825Z,101126.25
2023-04-30T17:34:55.918Z,101124.53
2023-04-30T17:37:23.789Z,101123.81
2023-04-30T17:39:51.874Z,101121.22
2023-04-30T17:42:19.991Z,101124.88
2023-04-30T17:44:48.782Z,101129.25
2023-04-30T17:47:17.015Z,101130.25
2023-04-30T17:49:46.417Z,101128.41
2023-04-30T17:52:14.510Z,101137.44
2023-04-30T17:54:42.706Z,101134.75
2023-04-30T17:57:10.668Z,101138.28
2023-04-30T17:59:40.346Z,101138.38
2023-04-30T18:02:08.738Z,101135.81
2023-04-30T18:04:36.766Z,101145.69
2023-04-30T18:07:08.097Z,101141.31
2023-04-30T18:09:36.180Z,101143.88
2023-04-30T18:12:04.213Z,101152.03
2023-04-30T18:14:32.587Z,101152.03
2023-04-30T18:17:00.539Z,101157.50
2023-04-30T18:19:28.704Z,101155.81
2023-04-30T18:21:57.420Z,101148.72
2023-04-30T18:24:28.359Z,101153.34
2023-04-30T18:26:56.466Z,101149.34
2023-04-30T18:29:24.742Z,101165.00
2023-04-30T18:31:53.017Z,101158.03
2023-04-30T18:34:21.336Z,101163.28
2023-04-30T18:36:49.421Z,101168.91
2023-04-30T18:39:17.513Z,101170.81
2023-04-30T18:41:46.846Z,101163.00
2023-04-30T18:44:14.919Z,101171.13
2023-04-30T18:46:42.853Z,101175.75
2023-04-30T18:49:10.883Z,101178.53
2023-04-30T18:51:38.942Z,101188.50
2023-04-30T18:54:06.916Z,101188.72
2023-04-30T18:56:35.694Z,101189.81
2023-04-30T18:59:05.060Z,101187.13
2023-04-30T19:01:33.187Z,101190.88
2023-04-30T19:04:01.629Z,101193.69
2023-04-30T19:06:30.845Z,101188.41
2023-04-30T19:08:59.779Z,101156.69
2023-04-30T19:11:27.814Z,101191.84
2023-04-30T19:13:55.910Z,101201.59
2023-04-30T19:16:25.470Z,101200.66
2023-04-30T19:18:53.422Z,101199.78
2023-04-30T19:21:21.438Z,101197.97
2023-04-30T19:23:49.352Z,101199.69
2023-04-30T19:26:17.254Z,101204.19
2023-04-30T19:28:45.291Z,101198.81
2023-04-30T19:31:13.544Z,101199.56
2023-04-30T19:33:43.052Z,101197.09
2023-04-30T19:36:12.181Z,101186.06
2023-04-30T19:38:40.674Z,101210.16
2023-04-30T19:41:08.751Z,101208.47
2023-04-30T19:43:37.145Z,101209.44
2023-04-30T19:46:05.351Z,101205.88
2023-04-30T19:48:33.349Z,101212.13
2023-04-30T19:51:04.840Z,101211.25
2023-04-30T19:53:33.027Z,101209.56
2023-04-30T19:56:01.025Z,101218.53
2023-04-30T19:58:29.141Z,101212.53
2023-04-30T20:00:57.793Z,101213.41
2023-04-30T20:03:26.518Z,101212.66
2023-04-30T20:05:54.505Z,101210.91
2023-04-30T20:08:24.076Z,101210.19
2023-04-30T20:10:52.205Z,101209.44
2023-04-30T20:13:24.972Z,101209.56
2023-04-30T20:15:53.102Z,101208.03
2023-04-30T20:18:21.224Z,101203.75
2023-04-30T20:20:49.364Z,101209.56
2023-04-30T20:23:19.279Z,101217.59
2023-04-30T20:25:50.107Z,101217.34
2023-04-30T20:28:19.152Z,101216.41
2023-04-30T20:30:48.113Z,101219.19
2023-04-30T20:33:16.418Z,101204.47
2023-04-30T20:35:45.494Z,101218.97
2023-04-30T20:38:13.763Z,101218.97
2023-04-30T20:40:41.710Z,101214.47
2023-04-30T20:43:12.817Z,101215.31
2023-04-30T20:45:42.436Z,101218.13
2023-04-30T20:48:10.526Z,101214.66
2023-04-30T20:50:38.704Z,101221.75
2023-04-30T20:53:08.351Z,101213.94
2023-04-30T20:55:37.578Z,101220.16
2023-04-30T20:58:06.837Z,101221.97
2023-04-30T21:00:36.258Z,101221.22
2023-04-30T21:03:04.733Z,101222.19
2023-04-30T21:05:33.024Z,101220.34
2023-04-30T21:08:01.938Z,101211.44
2023-04-30T21:10:35.174Z,101212.31
2023-04-30T21:13:05.178Z,101196.91
2023-04-30T21:15:35.733Z,101211.44
2023-04-30T21:18:05.293Z,101213.31
2023-04-30T21:20:33.443Z,101209.22
2023-04-30T21:23:03.290Z,101217.06
2023-04-30T21:25:31.326Z,101220.47
2023-04-30T21:27:59.409Z,101218.66
2023-04-30T21:30:27.548Z,101210.91
2023-04-30T21:32:58.393Z,101223.91
2023-04-30T21:35:33.007Z,101215.75
2023-04-30T21:38:01.124Z,101227.44
2023-04-30T21:40:32.130Z,101220.16
2023-04-30T21:43:00.718Z,101221.09
2023-04-30T21:45:28.770Z,101218.44
2023-04-30T21:47:57.024Z,101211.38
2023-04-30T21:50:25.206Z,101216.72
2023-04-30T21:52:54.478Z,101214.91
2023-04-30T21:55:22.769Z,101204.41
2023-04-30T21:57:51.686Z,101215.88
2023-04-30T22:00:21.156Z,101217.69
2023-04-30T22:02:49.688Z,101220.34
2023-04-30T22:05:18.965Z,101224.84
2023-04-30T22:07:47.344Z,101224.03
2023-04-30T22:10:16.663Z,101223.03
2023-04-30T22:12:47.410Z,101215.97
2023-04-30T22:15:16.384Z,101229.38
2023-04-30T22:17:47.696Z,101226.91
2023-04-30T22:20:15.619Z,101236.56
2023-04-30T22:22:43.688Z,101229.47
2023-04-30T22:25:11.649Z,101226.72
2023-04-30T22:27:41.193Z,101222.19
2023-04-30T22:30:09.963Z,101223.16
2023-04-30T22:32:38.618Z,101219.72
2023-04-30T22:35:10.595Z,101210.28
2023-04-30T22:37:39.363Z,101224.78
2023-04-30T22:40:08.326Z,101221.34
2023-04-30T22:42:36.539Z,101217.59
2023-04-30T22:45:07.267Z,101218.44
2023-04-30T22:47:35.524Z,101214.03
2023-04-30T22:50:04.037Z,101221.09
2023-04-30T22:52:34.271Z,101216.81
2023-04-30T22:55:03.221Z,101221.09
2023-04-30T22:57:31.301Z,101222.09
2023-04-30T22:59:59.376Z,101223.03
2023-04-30T23:02:28.926Z,101224.03
2023-04-30T23:04:57.137Z,101222.19
2023-04-30T23:07:25.304Z,101219.63
2023-04-30T23:09:53.422Z,101220.47
2023-04-30T23:12:22.436Z,101195.53
2023-04-30T23:14:50.914Z,101209.97
2023-04-30T23:17:19.011Z,101216.28
2023-04-30T23:19:48.404Z,101212.72
2023-04-30T23:22:16.634Z,101225.94
2023-04-30T23:24:44.602Z,101213.59
2023-04-30T23:27:12.524Z,101214.66
2023-04-30T23:29:40.548Z,101211.53
2023-04-30T23:32:08.715Z,101213.34
2023-04-30T23:34:36.928Z,101214.28
2023-04-30T23:37:06.347Z,101216.34
2023-04-30T23:39:34.295Z,101213.66
2023-04-30T23:42:02.650Z,101213.75
2023-04-30T23:44:32.488Z,101214.94
2023-04-30T23:47:01.396Z,101206.03
2023-04-30T23:49:29.434Z,101211.59
2023-04-30T23:51:57.476Z,101203.78
2023-04-30T23:54:27.148Z,101212.66
2023-04-30T23:56:55.429Z,101213.72
2023-04-30T23:59:25.232Z,101214.81
